Time;durP1;ratioP1;P1;durP2;ratioP2;P2;SDS_P1;SDS_P2;PMS_P1;PMS_P2;Temp;Humidity;BMP_temperature;BMP_pressure;BME280_temperature;BME280_humidity;BME280_pressure;Samples;Min_cycle;Max_cycle;Signal;HPM_P1;HPM_P2
2022/05/20 00:01:59;;;;;;;4.57;3.45;;;;;;;18.13;nan;100997.16;5003256;28;20101;-77
2022/05/20 00:04:26;;;;;;;2.95;2.55;;;;;;;18.16;nan;101002.34;4961521;28;20095;-77
2022/05/20 00:06:52;;;;;;;5.47;3.33;;;;;;;18.09;nan;100999.13;4982818;28;20521;-77
2022/05/20 00:09:19;;;;;;;4.03;2.72;;;;;;;18.02;nan;101007.50;5001593;28;20105;-77
2022/05/20 00:11:46;;;;;;;3.45;2.72;;;;;;;17.97;nan;101015.69;5003264;28;20052;-77
2022/05/20 00:14:12;;;;;;;3.83;3.10;;;;;;;18.00;nan;100999.53;4976543;28;20041;-76
2022/05/20 00:16:39;;;;;;;3.70;2.80;;;;;;;17.98;nan;101009.41;4986819;28;20038;-77
2022/05/20 00:19:07;;;;;;;3.42;2.78;;;;;;;17.87;nan;101012.59;4986832;28;20033;-77
2022/05/20 00:21:39;;;;;;;4.70;2.85;;;;;;;17.79;nan;101017.41;4977942;28;20042;-77
2022/05/20 00:24:06;;;;;;;6.15;2.70;;;;;;;17.81;nan;101023.53;4974595;28;20087;-77
2022/05/20 00:26:32;;;;;;;4.20;2.83;;;;;;;17.78;nan;101025.50;4978124;28;20048;-76
2022/05/20 00:28:59;;;;;;;7.03;2.70;;;;;;;17.83;nan;101026.16;4989996;28;20034;-77
2022/05/20 00:31:26;;;;;;;4.28;3.00;;;;;;;17.82;nan;101035.09;4981544;28;20043;-77
2022/05/20 00:33:53;;;;;;;3.13;2.67;;;;;;;17.78;nan;101029.03;4971703;28;20053;-77
2022/05/20 00:36:20;;;;;;;5.45;2.97;;;;;;;17.71;nan;101038.25;4984868;28;20104;-77
2022/05/20 00:38:49;;;;;;;5.85;3.22;;;;;;;17.68;nan;101033.88;4989839;28;20048;-78
2022/05/20 00:41:16;;;;;;;5.03;2.83;;;;;;;17.64;nan;101037.63;4978285;28;20034;-77
2022/05/20 00:43:47;;;;;;;5.18;3.33;;;;;;;17.62;nan;101033.28;4978173;28;20038;-77
2022/05/20 00:46:25;;;;;;;3.78;3.17;;;;;;;17.55;nan;101031.81;4978212;28;20050;-77
2022/05/20 00:48:59;;;;;;;5.03;3.17;;;;;;;17.57;nan;101029.94;4981907;28;20517;-77
2022/05/20 00:51:29;;;;;;;4.55;3.58;;;;;;;17.64;nan;101034.06;4966869;28;20046;-77
2022/05/20 00:53:59;;;;;;;4.40;3.08;;;;;;;17.51;nan;101033.75;4988774;28;20034;-76
2022/05/20 00:56:35;;;;;;;4.93;3.00;;;;;;;17.44;nan;101027.81;4958438;28;20046;-77
2022/05/20 00:59:04;;;;;;;4.55;3.30;;;;;;;17.36;nan;101024.59;4982737;28;20097;-78
2022/05/20 01:01:31;;;;;;;3.42;3.13;;;;;;;17.39;nan;101037.81;4968460;28;20547;-77
2022/05/20 01:03:57;;;;;;;3.58;2.92;;;;;;;17.38;nan;101043.22;4964036;28;20058;-77
2022/05/20 01:06:24;;;;;;;5.85;3.85;;;;;;;17.32;nan;101051.47;4961307;28;20039;-77
2022/05/20 01:08:51;;;;;;;4.75;3.72;;;;;;;17.30;nan;101061.38;4983352;28;20046;-77
2022/05/20 01:11:18;;;;;;;5.22;4.20;;;;;;;17.25;nan;101066.03;4986844;28;20030;-78
2022/05/20 01:13:47;;;;;;;5.38;3.90;;;;;;;17.16;nan;101069.97;4959959;28;20073;-77
2022/05/20 01:16:15;;;;;;;5.47;4.85;;;;;;;17.25;nan;101063.38;4972915;28;20043;-77
2022/05/20 01:18:44;;;;;;;4.95;4.25;;;;;;;17.15;nan;101063.75;4985542;28;20042;-77
2022/05/20 01:21:11;;;;;;;5.20;3.70;;;;;;;17.11;nan;101063.94;4962733;28;20093;-77
2022/05/20 01:23:39;;;;;;;5.03;4.40;;;;;;;17.04;nan;101075.78;4969935;28;20492;-78
2022/05/20 01:26:06;;;;;;;5.22;4.40;;;;;;;16.98;nan;101073.34;4956289;28;20062;-77
2022/05/20 01:28:33;;;;;;;5.70;4.40;;;;;;;16.92;nan;101073.63;4963091;28;20117;-77
2022/05/20 01:31:03;;;;;;;6.25;4.93;;;;;;;16.84;nan;101076.59;4951487;28;20034;-77
2022/05/20 01:33:36;;;;;;;5.25;4.50;;;;;;;16.81;nan;101077.56;4979286;28;20042;-77
2022/05/20 01:36:06;;;;;;;6.90;4.70;;;;;;;16.79;nan;101073.22;4959197;28;20035;-78
2022/05/20 01:38:33;;;;;;;8.25;5.18;;;;;;;16.82;nan;101078.47;4936012;28;20038;-77
2022/05/20 01:41:14;;;;;;;7.07;4.90;;;;;;;16.77;nan;101093.78;4961030;28;20039;-77
2022/05/20 01:43:52;;;;;;;6.18;5.05;;;;;;;16.76;nan;101090.25;4982570;28;20039;-77
2022/05/20 01:46:29;;;;;;;5.60;5.00;;;;;;;16.65;nan;101089.78;4960439;28;20054;-77
2022/05/20 01:49:17;;;;;;;6.55;5.22;;;;;;;16.58;nan;101094.47;5018881;28;20105;-78
2022/05/20 01:51:59;;;;;;;7.55;5.65;;;;;;;16.61;nan;101094.34;4981446;28;20042;-78
2022/05/20 01:54:43;;;;;;;7.10;5.47;;;;;;;16.63;nan;101096.06;5003010;28;20700;-78
2022/05/20 01:57:17;;;;;;;8.13;6.05;;;;;;;16.59;nan;101098.88;4987521;28;20073;-77
2022/05/20 01:59:46;;;;;;;;;;;;;;;16.68;nan;101105.66;4977826;28;20046;-77
2022/05/20 02:02:24;;;;;;;6.88;4.75;;;;;;;16.67;nan;101108.38;4985864;28;19984;-77
2022/05/20 02:04:57;;;;;;;9.15;5.20;;;;;;;16.69;nan;101114.56;4985359;28;20042;-78
2022/05/20 02:07:27;;;;;;;7.20;5.68;;;;;;;16.76;nan;101111.59;4980681;28;20547;-77
2022/05/20 02:09:59;;;;;;;8.30;6.10;;;;;;;16.77;nan;101121.34;4984273;28;20088;-77
2022/05/20 02:12:28;;;;;;;5.97;5.38;;;;;;;16.78;nan;101117.72;4987442;28;20233;-78
2022/05/20 02:15:04;;;;;;;7.00;6.30;;;;;;;16.83;nan;101123.78;4951615;28;20170;-77
2022/05/20 02:17:35;;;;;;;9.07;5.88;;;;;;;16.86;nan;101128.97;4980137;28;20514;-77
2022/05/20 02:20:36;;;;;;;8.85;5.80;;;;;;;16.89;nan;101126.19;4995856;28;20037;-77
2022/05/20 02:23:06;;;;;;;7.57;6.88;;;;;;;16.95;nan;101129.53;5006683;28;20487;-77
2022/05/20 02:25:37;;;;;;;7.35;6.50;;;;;;;16.96;nan;101123.28;4981821;28;20092;-78
2022/05/20 02:28:09;;;;;;;6.60;5.90;;;;;;;16.90;nan;101119.06;4995107;28;20034;-77
2022/05/20 02:30:36;;;;;;;7.43;6.63;;;;;;;16.89;nan;101119.97;4994807;28;20065;-77
2022/05/20 02:33:15;;;;;;;7.63;6.85;;;;;;;16.91;nan;101119.94;4986625;28;20073;-77
2022/05/20 02:35:42;;;;;;;8.98;7.00;;;;;;;16.94;nan;101115.34;4992632;28;20088;-77
2022/05/20 02:38:10;;;;;;;8.93;7.10;;;;;;;16.96;nan;101115.25;4976375;28;20038;-77
2022/05/20 02:40:38;;;;;;;7.25;6.60;;;;;;;17.00;nan;101106.22;4989712;28;20092;-76
2022/05/20 02:43:05;;;;;;;8.15;7.30;;;;;;;16.98;nan;101116.94;4965580;28;20042;-77
2022/05/20 02:45:33;;;;;;;8.63;7.28;;;;;;;16.99;nan;101110.69;4984809;28;20038;-77
2022/05/20 02:48:00;;;;;;;9.60;8.00;;;;;;;17.12;nan;101109.25;4979597;28;20096;-77
2022/05/20 02:50:27;;;;;;;8.30;7.50;;;;;;;17.04;nan;101110.50;4960144;28;20049;-76
2022/05/20 02:52:53;;;;;;;8.30;7.00;;;;;;;16.90;nan;101108.41;5011353;28;20092;-77
2022/05/20 02:55:20;;;;;;;8.88;7.18;;;;;;;16.82;nan;101099.81;5000916;28;20515;-77
2022/05/20 02:57:47;;;;;;;8.23;7.40;;;;;;;16.75;nan;101109.84;4990321;28;20116;-77
2022/05/20 03:04:09;;;;;;;7.43;6.45;;;;;;;16.50;nan;101109.03;4964716;28;20120;-77
2022/05/20 03:05:55;;;;;;;9.35;7.15;;;;;;;16.47;nan;101119.78;5003696;28;20038;-77
2022/05/20 03:08:22;;;;;;;8.43;7.32;;;;;;;16.40;nan;101111.16;4988279;28;20042;-77
2022/05/20 03:10:49;;;;;;;8.70;7.53;;;;;;;16.32;nan;101122.13;5005837;28;20046;-77
2022/05/20 03:13:17;;;;;;;8.85;7.50;;;;;;;16.32;nan;101116.78;4992247;28;20060;-77
2022/05/20 03:15:45;;;;;;;9.15;8.13;;;;;;;16.24;nan;101134.00;4991231;28;20462;-78
2022/05/20 03:18:12;;;;;;;7.78;6.40;;;;;;;16.18;nan;101128.88;4982198;28;20120;-77
2022/05/20 03:20:41;;;;;;;8.18;7.20;;;;;;;16.12;nan;101129.94;4977562;28;20446;-77
2022/05/20 03:23:09;;;;;;;8.45;7.60;;;;;;;16.08;nan;101136.34;4992853;28;20041;-77
2022/05/20 03:25:37;;;;;;;9.88;8.45;;;;;;;16.15;nan;101145.84;4976435;28;20038;-77
2022/05/20 03:28:09;;;;;;;29.80;10.38;;;;;;;16.23;nan;101142.91;4994228;28;20038;-77
2022/05/20 03:30:36;;;;;;;9.50;8.20;;;;;;;16.19;nan;101147.47;4990671;28;20034;-78
2022/05/20 03:33:02;;;;;;;10.32;9.25;;;;;;;16.31;nan;101147.03;5001243;28;20095;-78
2022/05/20 03:35:29;;;;;;;12.07;8.98;;;;;;;16.33;nan;101150.53;4967291;28;20052;-78
2022/05/20 03:37:56;;;;;;;11.48;9.52;;;;;;;16.35;nan;101157.59;4985169;28;20419;-77
2022/05/20 03:40:23;;;;;;;19.08;9.48;;;;;;;16.46;nan;101150.91;4980800;28;20125;-76
2022/05/20 03:42:49;;;;;;;11.77;10.20;;;;;;;16.48;nan;101145.53;4999932;28;20095;-76
2022/05/20 03:45:16;;;;;;;10.45;8.68;;;;;;;16.45;nan;101151.84;4977818;28;20577;-77
2022/05/20 03:47:43;;;;;;;9.10;8.20;;;;;;;16.53;nan;101156.91;4995509;28;20982;-77
2022/05/20 03:50:09;;;;;;;9.80;8.45;;;;;;;16.56;nan;101152.34;4986638;28;20112;-77
2022/05/20 03:52:36;;;;;;;9.25;7.78;;;;;;;16.62;nan;101151.22;4982476;28;20045;-77
2022/05/20 03:55:03;;;;;;;11.60;9.60;;;;;;;16.68;nan;101156.34;4975166;28;20546;-77
2022/05/20 03:57:30;;;;;;;9.80;8.75;;;;;;;16.72;nan;101155.31;4981767;28;20046;-78
2022/05/20 03:59:57;;;;;;;10.32;9.10;;;;;;;16.78;nan;101151.56;4988509;28;20409;-77
2022/05/20 04:02:24;;;;;;;9.68;8.68;;;;;;;16.81;nan;101152.28;5002303;28;20042;-76
2022/05/20 04:04:52;;;;;;;10.10;8.70;;;;;;;16.92;nan;101151.03;4994695;28;20118;-77
2022/05/20 04:07:22;;;;;;;10.63;8.85;;;;;;;17.03;nan;101148.81;4967814;28;20049;-77
2022/05/20 04:09:49;;;;;;;10.30;8.43;;;;;;;17.09;nan;101153.91;5000422;28;20037;-79
2022/05/20 04:12:31;;;;;;;10.00;9.00;;;;;;;17.16;nan;101161.63;4989352;28;20124;-77
2022/05/20 04:14:58;;;;;;;9.82;8.75;;;;;;;17.21;nan;101156.06;4984861;28;20184;-77
2022/05/20 04:17:25;;;;;;;9.57;8.32;;;;;;;17.26;nan;101151.44;4963423;28;20042;-78
2022/05/20 04:19:52;;;;;;;8.90;8.02;;;;;;;17.21;nan;101155.19;4981222;28;20104;-78
2022/05/20 04:22:24;;;;;;;9.93;8.93;;;;;;;17.22;nan;101156.94;4974708;28;20054;-78
2022/05/20 04:24:51;;;;;;;10.32;9.23;;;;;;;17.21;nan;101155.19;5000482;28;20034;-77
2022/05/20 04:27:18;;;;;;;10.05;9.05;;;;;;;17.16;nan;101142.91;4985565;28;20088;-78
2022/05/20 04:29:45;;;;;;;9.55;8.55;;;;;;;17.18;nan;101145.53;4967391;28;20038;-77
2022/05/20 04:32:11;;;;;;;9.82;8.25;;;;;;;17.14;nan;101149.22;4997179;28;20380;-77
2022/05/20 04:34:38;;;;;;;8.88;7.97;;;;;;;17.13;nan;101153.69;4986438;28;20097;-78
2022/05/20 04:37:05;;;;;;;8.95;8.05;;;;;;;17.17;nan;101149.13;4971844;28;20038;-77
2022/05/20 04:39:32;;;;;;;8.73;7.18;;;;;;;17.14;nan;101157.25;4977637;28;20117;-78
2022/05/20 04:47:30;;;;;;;10.15;8.75;;;;;;;17.29;nan;101155.78;4988164;28;20349;-77
2022/05/20 04:49:57;;;;;;;8.73;7.75;;;;;;;17.33;nan;101155.59;4999000;28;20034;-79
2022/05/20 04:52:24;;;;;;;10.80;8.20;;;;;;;17.36;nan;101159.94;4963579;28;20385;-78
2022/05/20 04:54:55;;;;;;;27.73;10.65;;;;;;;17.50;nan;101172.75;4982813;28;20553;-78
2022/05/20 04:57:29;;;;;;;21.88;10.35;;;;;;;17.72;nan;101176.28;4978662;28;20042;-77
2022/05/20 05:00:17;;;;;;;8.77;7.88;;;;;;;17.77;nan;101174.28;5008111;28;20048;-77
2022/05/20 05:02:45;;;;;;;9.07;7.95;;;;;;;17.79;nan;101179.56;4971332;28;20039;-77
2022/05/20 05:05:17;;;;;;;8.93;7.78;;;;;;;17.79;nan;101187.59;4994381;28;20038;-77
2022/05/20 05:07:47;;;;;;;9.60;8.60;;;;;;;17.92;nan;101188.81;4973529;28;20049;-77
2022/05/20 05:10:16;;;;;;;8.85;7.90;;;;;;;18.02;nan;101198.19;4993176;28;20049;-77
2022/05/20 05:12:43;;;;;;;107.75;24.77;;;;;;;18.11;nan;101197.78;4977518;28;20758;-77
2022/05/20 05:15:11;;;;;;;10.60;8.20;;;;;;;18.19;nan;101192.97;4980681;28;20212;-78
2022/05/20 05:20:25;;;;;;;11.00;9.90;;;;;;;18.39;nan;101197.44;5017514;28;20050;-76
2022/05/20 05:22:53;;;;;;;10.38;8.52;;;;;;;18.45;nan;101204.31;4983402;28;20033;-77
2022/05/20 05:25:23;;;;;;;10.95;7.97;;;;;;;18.53;nan;101199.50;4982967;28;20095;-79
2022/05/20 05:27:50;;;;;;;12.93;10.40;;;;;;;18.63;nan;101211.53;5001458;28;20037;-79
2022/05/20 05:30:17;;;;;;;9.23;8.32;;;;;;;18.59;nan;101217.97;5005987;28;20083;-77
2022/05/20 05:32:44;;;;;;;10.35;8.23;;;;;;;18.65;nan;101212.34;4993833;28;20430;-78
2022/05/20 05:35:17;;;;;;;11.27;9.80;;;;;;;18.62;nan;101201.75;5000665;28;20038;-78
2022/05/20 05:37:43;;;;;;;9.38;8.48;;;;;;;18.61;nan;101217.91;4990746;28;20042;-78
2022/05/20 05:40:13;;;;;;;9.35;8.40;;;;;;;18.61;nan;101224.13;4984548;28;20499;-78
2022/05/20 05:42:41;;;;;;;12.10;9.95;;;;;;;18.65;nan;101219.47;4984993;28;20542;-78
2022/05/20 05:45:09;;;;;;;13.02;9.93;;;;;;;18.61;nan;101223.25;4996524;28;20042;-77
2022/05/20 05:47:35;;;;;;;10.30;8.93;;;;;;;18.51;nan;101220.97;4998958;28;20399;-78
2022/05/20 05:50:03;;;;;;;12.77;10.73;;;;;;;18.49;nan;101219.28;5007922;28;20388;-78
2022/05/20 05:52:30;;;;;;;11.18;9.05;;;;;;;18.50;nan;101216.56;4978264;28;20824;-78
2022/05/20 05:54:57;;;;;;;22.08;10.30;;;;;;;18.60;nan;101222.38;4973552;28;20088;-77
2022/05/20 05:57:23;;;;;;;12.23;10.50;;;;;;;18.59;nan;101227.81;4969919;28;20093;-80
2022/05/20 05:59:50;;;;;;;12.65;10.43;;;;;;;18.59;nan;101219.78;5027348;23;20099;-79
2022/05/20 06:02:17;;;;;;;11.65;10.45;;;;;;;18.65;nan;101230.19;4946103;29;20492;-79
2022/05/20 06:04:44;;;;;;;11.68;9.73;;;;;;;18.78;nan;101218.03;4939390;29;20044;-78
2022/05/20 06:07:11;;;;;;;13.60;10.20;;;;;;;18.81;nan;101229.47;4923367;29;20043;-79
2022/05/20 06:09:38;;;;;;;9.80;8.80;;;;;;;18.77;nan;101221.66;4937539;28;20053;-79
2022/05/20 06:12:05;;;;;;;11.32;9.82;;;;;;;18.93;nan;101221.81;4971544;28;20035;-79
2022/05/20 06:14:32;;;;;;;10.93;9.70;;;;;;;19.02;nan;101224.94;4949818;28;20046;-79
2022/05/20 06:16:59;;;;;;;11.73;10.30;;;;;;;19.02;nan;101219.59;4928855;29;20055;-80
2022/05/20 06:19:29;;;;;;;10.13;9.13;;;;;;;19.06;nan;101229.19;4929850;28;20102;-79
2022/05/20 06:21:55;;;;;;;10.93;9.82;;;;;;;19.03;nan;101221.31;4916606;29;20039;-80
2022/05/20 06:24:24;;;;;;;9.70;8.70;;;;;;;19.09;nan;101220.16;4920980;29;20061;-80
2022/05/20 06:26:54;;;;;;;10.02;8.90;;;;;;;19.16;nan;101215.38;4932517;28;20043;-80
2022/05/20 06:29:21;;;;;;;13.27;10.65;;;;;;;19.19;nan;101212.56;4913880;28;20058;-81
2022/05/20 06:31:48;;;;;;;104.68;21.40;;;;;;;19.59;nan;101209.72;4904616;29;20039;-79
2022/05/20 06:34:15;;;;;;;190.88;35.15;;;;;;;20.08;nan;101215.28;4915436;29;20043;-82
2022/05/20 06:39:49;;;;;;;12.02;9.98;;;;;;;21.55;nan;101202.00;4941891;28;20043;-81
2022/05/20 06:42:14;;;;;;;9.60;8.30;;;;;;;22.29;nan;101210.19;4949371;29;20039;-78
2022/05/20 06:44:40;;;;;;;9.90;8.63;;;;;;;22.40;nan;101212.22;4903673;29;20043;-82
2022/05/20 06:47:07;;;;;;;8.43;7.63;;;;;;;22.40;nan;101213.06;4935372;29;20078;-78
2022/05/20 06:49:34;;;;;;;9.80;8.68;;;;;;;22.26;nan;101214.88;4903851;29;20492;-79
2022/05/20 06:52:01;;;;;;;12.60;9.68;;;;;;;21.96;nan;101212.16;4908002;29;20090;-81
2022/05/20 06:54:47;;;;;;;10.93;8.18;;;;;;;21.92;nan;101212.34;4930186;29;20059;-79
2022/05/20 06:57:21;;;;;;;10.73;8.50;;;;;;;21.86;nan;101214.50;4912638;28;20043;-86
2022/05/20 06:59:48;;;;;;;9.32;7.93;;;;;;;22.05;nan;101211.63;4924031;29;20079;-80
2022/05/20 07:02:14;;;;;;;11.30;8.07;;;;;;;22.01;nan;101210.06;4901998;29;20130;-81
2022/05/20 07:04:47;;;;;;;10.88;8.90;;;;;;;22.35;nan;101215.16;4902420;29;20122;-79
2022/05/20 07:07:14;;;;;;;8.05;7.25;;;;;;;22.50;nan;101215.19;4915650;29;20044;-79
2022/05/20 07:09:42;;;;;;;58.05;12.93;;;;;;;22.70;nan;101201.34;4907517;29;20127;-79
2022/05/20 07:12:10;;;;;;;8.98;8.07;;;;;;;22.41;nan;101214.81;4885643;29;20458;-86
2022/05/20 07:14:36;;;;;;;8.85;7.60;;;;;;;21.80;nan;101196.06;4890117;29;20036;-81
2022/05/20 07:17:03;;;;;;;9.77;6.90;;;;;;;21.56;nan;101217.19;4901700;29;20056;-82
2022/05/20 07:19:30;;;;;;;7.85;6.95;;;;;;;22.07;nan;101205.22;4915593;29;20115;-83
2022/05/20 07:21:57;;;;;;;7.72;6.93;;;;;;;22.47;nan;101213.56;4880061;29;20028;-80
2022/05/20 07:24:24;;;;;;;7.05;6.35;;;;;;;22.50;nan;101217.91;4918472;29;20490;-84
2022/05/20 07:26:50;;;;;;;8.70;7.05;;;;;;;22.14;nan;101213.78;4902257;29;20048;-81
2022/05/20 07:29:17;;;;;;;8.18;7.28;;;;;;;21.92;nan;101220.41;4915834;29;20082;-80
2022/05/20 07:31:44;;;;;;;8.65;7.47;;;;;;;22.03;nan;101224.28;4901827;29;20576;-82
2022/05/20 07:34:12;;;;;;;7.93;7.13;;;;;;;22.52;nan;101213.28;4899812;29;20421;-82
2022/05/20 07:36:40;;;;;;;9.10;6.88;;;;;;;22.00;nan;101221.78;4911545;29;20525;-82
2022/05/20 07:39:08;;;;;;;8.52;6.65;;;;;;;22.22;nan;101222.28;4922028;29;20039;-80
2022/05/20 07:41:35;;;;;;;7.32;6.60;;;;;;;22.89;nan;101215.47;4916354;29;20412;-82
2022/05/20 07:44:03;;;;;;;7.38;6.47;;;;;;;23.14;nan;101201.28;4912539;29;20182;-80
2022/05/20 07:46:30;;;;;;;6.30;5.70;;;;;;;23.50;nan;101200.72;4890800;29;20048;-80
2022/05/20 07:48:57;;;;;;;9.95;6.88;;;;;;;23.76;nan;101208.94;4896813;29;20044;-82
2022/05/20 07:51:25;;;;;;;9.65;7.10;;;;;;;24.01;nan;101209.00;4924539;29;20036;-82
2022/05/20 07:53:56;;;;;;;5.78;5.18;;;;;;;24.45;nan;101205.09;4885349;29;20671;-80
2022/05/20 07:56:25;;;;;;;7.75;5.70;;;;;;;24.51;nan;101211.94;4901316;29;20047;-84
2022/05/20 07:59:08;;;;;;;5.47;4.57;;;;;;;24.63;nan;101222.72;4913806;29;20054;-80
2022/05/20 08:01:36;;;;;;;5.57;5.00;;;;;;;23.46;nan;101233.41;4917113;29;20090;-83
2022/05/20 08:06:55;;;;;;;5.80;5.20;;;;;;;23.00;nan;101229.09;4920192;29;20093;-83
2022/05/20 08:09:26;;;;;;;6.25;5.65;;;;;;;23.28;nan;101230.03;4956337;28;20047;-81
2022/05/20 08:11:52;;;;;;;337.63;54.30;;;;;;;23.54;nan;101221.13;4968231;28;20051;-79
2022/05/20 08:14:19;;;;;;;6.93;6.22;;;;;;;22.93;nan;101229.59;4919892;29;20040;-82
2022/05/20 08:16:46;;;;;;;5.95;5.32;;;;;;;22.72;nan;101231.78;4922303;29;20097;-82
2022/05/20 08:19:14;;;;;;;7.53;5.32;;;;;;;22.94;nan;101247.47;4922934;29;20057;-81
2022/05/20 08:21:40;;;;;;;6.80;5.90;;;;;;;23.23;nan;101226.78;4906145;29;20094;-81
2022/05/20 08:24:07;;;;;;;8.40;5.38;;;;;;;23.71;nan;101229.94;4906240;29;20039;-79
2022/05/20 08:26:34;;;;;;;6.40;5.15;;;;;;;23.86;nan;101228.94;4952088;28;20586;-81
2022/05/20 08:29:02;;;;;;;6.88;5.47;;;;;;;24.25;nan;101217.28;4940930;29;20036;-81
2022/05/20 08:31:33;;;;;;;6.78;5.38;;;;;;;24.00;nan;101228.00;4945409;29;20070;-80
2022/05/20 08:34:02;;;;;;;6.50;5.82;;;;;;;24.07;nan;101224.81;4923955;29;20102;-83
2022/05/20 08:36:29;;;;;;;5.85;4.40;;;;;;;24.05;nan;101218.66;4928052;29;20043;-82
2022/05/20 08:38:56;;;;;;;5.85;5.22;;;;;;;24.00;nan;101225.31;4936750;29;20066;-82
2022/05/20 08:41:29;;;;;;;5.07;4.57;;;;;;;23.92;nan;101227.66;4937277;29;20579;-82
2022/05/20 08:43:56;;;;;;;7.07;5.20;;;;;;;23.80;nan;101232.06;4936663;29;20524;-81
2022/05/20 08:46:24;;;;;;;8.23;5.50;;;;;;;23.25;nan;101225.72;4923033;29;20110;-82
2022/05/20 08:48:56;;;;;;;7.50;4.75;;;;;;;23.85;nan;101221.81;4952544;28;20097;-82
2022/05/20 08:51:27;;;;;;;7.75;6.28;;;;;;;24.12;nan;101206.44;4921250;29;20062;-80
2022/05/20 08:53:54;;;;;;;9.07;6.00;;;;;;;23.47;nan;101200.06;4920405;29;20054;-81
2022/05/20 08:56:23;;;;;;;6.53;4.93;;;;;;;23.36;nan;101208.84;4922152;28;20050;-82
2022/05/20 08:58:53;;;;;;;7.28;6.00;;;;;;;23.36;nan;101198.03;4920222;29;20085;-82
2022/05/20 09:01:28;;;;;;;6.43;5.70;;;;;;;22.71;nan;101203.13;4968460;28;20058;-81
2022/05/20 09:03:55;;;;;;;6.03;5.43;;;;;;;22.61;nan;101202.78;4922301;29;20073;-82
2022/05/20 09:06:23;;;;;;;5.10;4.60;;;;;;;23.14;nan;101189.66;4921808;29;20039;-82
2022/05/20 09:09:12;;;;;;;4.32;3.92;;;;;;;23.76;nan;101188.22;4927982;29;20043;-82
2022/05/20 09:11:44;;;;;;;16.70;6.05;;;;;;;24.46;nan;101187.94;4944695;29;20071;-82
2022/05/20 09:17:12;;;;;;;4.25;3.85;;;;;;;24.99;nan;101197.63;4953206;28;20051;-82
2022/05/20 09:19:52;;;;;;;7.72;4.53;;;;;;;24.79;nan;101200.03;4936445;29;20043;-82
2022/05/20 09:22:28;;;;;;;4.78;4.22;;;;;;;24.34;nan;101200.47;4965154;28;20413;-83
2022/05/20 09:24:55;;;;;;;4.18;3.67;;;;;;;23.82;nan;101200.44;4921012;29;20145;-81
2022/05/20 09:27:34;;;;;;;4.40;4.00;;;;;;;23.52;nan;101200.59;4919096;28;20054;-81
2022/05/20 09:30:07;;;;;;;5.25;3.88;;;;;;;23.47;nan;101206.31;4920325;29;20065;-81
2022/05/20 09:32:37;;;;;;;90.38;17.98;;;;;;;23.72;nan;101200.19;4903647;29;20084;-82
2022/05/20 09:35:23;;;;;;;6.47;3.78;;;;;;;24.09;nan;101200.41;4936863;29;20047;-82
2022/05/20 09:37:51;;;;;;;13.10;4.53;;;;;;;24.68;nan;101208.91;4936152;29;20043;-82
2022/05/20 09:40:25;;;;;;;6.70;4.50;;;;;;;24.66;nan;101209.03;4920535;29;20565;-82
2022/05/20 09:43:29;;;;;;;5.63;3.58;;;;;;;25.05;nan;101196.34;4920940;28;20042;-82
2022/05/20 09:45:59;;;;;;;4.85;3.42;;;;;;;25.07;nan;101204.38;4928846;29;20089;-82
2022/05/20 09:49:05;;;;;;;5.30;3.60;;;;;;;25.03;nan;101192.88;4935041;29;20420;-80
2022/05/20 09:51:41;;;;;;;5.03;3.97;;;;;;;24.88;nan;101197.53;4920123;29;20094;-81
2022/05/20 09:54:16;;;;;;;6.07;3.78;;;;;;;25.23;nan;101188.75;4947588;28;20042;-82
2022/05/20 09:56:57;;;;;;;8.98;4.00;;;;;;;25.17;nan;101189.19;4919465;29;20428;-81
2022/05/20 09:59:32;;;;;;;4.53;3.65;;;;;;;25.26;nan;101186.66;4905589;29;20126;-82
2022/05/20 10:02:08;;;;;;;4.82;3.97;;;;;;;25.25;nan;101187.66;4900757;29;20050;-82
2022/05/20 10:04:41;;;;;;;7.15;3.92;;;;;;;24.46;nan;101182.53;4916130;29;20413;-81
2022/05/20 10:07:13;;;;;;;6.40;3.73;;;;;;;24.72;nan;101169.91;4916757;29;20183;-81
2022/05/20 10:09:46;;;;;;;4.43;3.40;;;;;;;25.30;nan;101170.19;4885066;29;20283;-81
2022/05/20 10:12:26;;;;;;;3.88;3.25;;;;;;;25.81;nan;101168.16;4900409;29;20421;-82
2022/05/20 10:14:57;;;;;;;6.22;3.70;;;;;;;26.34;nan;101161.31;4885634;29;20057;-82
2022/05/20 10:18:02;;;;;;;38.80;8.00;;;;;;;26.19;nan;101150.81;4925121;29;20509;-81
2022/05/20 10:20:46;;;;;;;4.35;3.30;;;;;;;25.82;nan;101145.53;4913344;29;20111;-83
2022/05/20 10:23:28;;;;;;;;;;;;;;;26.03;nan;101156.56;4888191;29;20541;-82
2022/05/20 10:26:05;;;;;;;4.35;3.75;;;;;;;25.79;nan;101153.88;4916708;29;19927;-82
2022/05/20 10:34:32;;;;;;;5.25;3.10;;;;;;;26.19;nan;101161.63;4902829;29;20098;-81
2022/05/20 10:37:10;;;;;;;3.53;3.22;;;;;;;26.52;nan;101164.44;4921267;29;20039;-83
2022/05/20 10:39:50;;;;;;;4.55;3.13;;;;;;;26.38;nan;101157.38;4884792;29;20048;-81
2022/05/20 10:42:38;;;;;;;3.70;3.40;;;;;;;26.77;nan;101160.63;4896530;29;20135;-81
2022/05/20 10:51:09;;;;;;;4.13;3.03;;;;;;;26.20;nan;101142.56;4927040;29;20036;-85
2022/05/20 10:53:51;;;;;;;3.28;2.58;;;;;;;26.18;nan;101140.97;4898742;29;20511;-80
2022/05/20 10:56:42;;;;;;;4.90;3.03;;;;;;;25.94;nan;101138.31;4914018;29;20470;-80
2022/05/20 10:59:19;;;;;;;4.00;3.05;;;;;;;26.16;nan;101127.53;4917618;28;20569;-80
2022/05/20 11:02:06;;;;;;;3.33;3.03;;;;;;;26.67;nan;101129.84;4928573;29;20128;-79
2022/05/20 11:05:07;;;;;;;4.78;3.65;;;;;;;26.28;nan;101126.56;4919779;29;20738;-81
2022/05/20 11:07:46;;;;;;;7.05;3.55;;;;;;;25.85;nan;101118.22;4894860;29;20060;-79
2022/05/20 11:10:28;;;;;;;63.65;11.65;;;;;;;25.55;nan;101129.50;4900758;29;20138;-79
2022/05/20 11:13:03;;;;;;;3.75;3.00;;;;;;;26.10;nan;101117.19;4946441;29;20494;-80
2022/05/20 11:15:36;;;;;;;3.55;2.90;;;;;;;26.50;nan;101114.06;4900471;29;20049;-80
2022/05/20 11:18:25;;;;;;;5.00;3.22;;;;;;;26.34;nan;101109.84;4943828;28;20502;-80
2022/05/20 11:21:05;;;;;;;5.07;3.25;;;;;;;26.32;nan;101119.94;4915425;29;20044;-79
2022/05/20 11:23:59;;;;;;;3.28;2.90;;;;;;;26.07;nan;101109.31;4904962;29;20501;-79
2022/05/20 11:26:46;;;;;;;5.00;3.20;;;;;;;26.35;nan;101114.25;4902231;29;20055;-82
2022/05/20 11:29:35;;;;;;;4.88;3.42;;;;;;;25.71;nan;101103.03;4912757;29;20098;-80
2022/05/20 11:32:05;;;;;;;3.92;3.30;;;;;;;26.00;nan;101097.22;4866755;29;20164;-81
2022/05/20 11:35:10;;;;;;;3.45;3.10;;;;;;;26.39;nan;101093.22;4909477;29;20050;-81
2022/05/20 11:37:49;;;;;;;3.42;2.80;;;;;;;26.62;nan;101094.09;4908160;29;20051;-81
2022/05/20 11:40:56;;;;;;;3.03;2.83;;;;;;;26.11;nan;101091.81;4897757;29;20044;-81
2022/05/20 11:43:51;;;;;;;4.38;3.05;;;;;;;26.12;nan;101082.72;4925964;29;20147;-81
2022/05/20 11:46:36;;;;;;;3.97;3.22;;;;;;;26.37;nan;101078.91;4917560;29;20051;-84
2022/05/20 11:49:31;;;;;;;3.80;3.13;;;;;;;26.25;nan;101079.91;4916078;29;20050;-83
2022/05/20 11:52:22;;;;;;;4.03;3.30;;;;;;;26.34;nan;101071.91;4918508;29;20075;-82
2022/05/20 11:54:55;;;;;;;3.38;3.08;;;;;;;26.57;nan;101064.69;4920289;29;20044;-82
2022/05/20 11:57:24;;;;;;;3.92;2.55;;;;;;;26.80;nan;101051.94;4888963;29;20050;-81
2022/05/20 12:00:02;;;;;;;3.42;3.13;;;;;;;26.23;nan;101049.34;4909259;29;20044;-82
2022/05/20 12:02:38;;;;;;;2.72;2.53;;;;;;;26.52;nan;101055.19;4944239;29;20520;-81
2022/05/20 12:05:08;;;;;;;3.42;3.03;;;;;;;26.78;nan;101053.06;4919464;29;20036;-83
2022/05/20 12:07:37;;;;;;;6.65;3.45;;;;;;;26.99;nan;101045.88;4898988;29;20121;-83
2022/05/20 12:10:32;;;;;;;3.65;2.50;;;;;;;27.23;nan;101050.22;4917378;29;20063;-82
2022/05/20 12:13:22;;;;;;;3.03;2.72;;;;;;;27.29;nan;101041.59;4921643;29;20362;-83
2022/05/20 12:16:07;;;;;;;2.75;2.55;;;;;;;27.44;nan;101056.56;4907036;29;20047;-83
2022/05/20 12:24:37;;;;;;;3.05;2.75;;;;;;;26.31;nan;101026.09;4920201;29;20568;-83
2022/05/20 12:27:33;;;;;;;4.00;2.70;;;;;;;26.58;nan;101027.59;4938377;29;20548;-83
2022/05/20 12:30:09;;;;;;;3.60;2.65;;;;;;;26.85;nan;101028.03;4955213;28;20059;-83
2022/05/20 12:32:39;;;;;;;2.55;2.30;;;;;;;26.83;nan;101016.44;4952599;29;20051;-83
2022/05/20 12:35:10;;;;;;;3.28;2.67;;;;;;;27.03;nan;101022.06;4937552;29;20066;-83
2022/05/20 12:37:43;;;;;;;2.80;2.58;;;;;;;26.97;nan;101015.28;4920604;29;20051;-85
2022/05/20 12:40:39;;;;;;;3.88;2.67;;;;;;;26.56;nan;101013.28;4942213;29;20086;-82